F/V Le Dolmen — FHMD — position and weather

sailwx.info

Track history (hours):
 
Tides and Currents Weather Stations Pressure Air Temp Water Temp Dewpoint Dewpoint Depression Visibility Wind Speed Wind Dir Waves Ship Positions

F/V Le Dolmen

Last reported at 2017-Apr-24 09:03 UTC. Time now 2017-Apr-24 15:19 UTC.
Position N 47°21' W 004°57'.

Length 18 m.

Type: Fishing. MMSI: 228374000.

Date/timePositionNaut miles runAvg speedWind from/ knotsBaromVisibWave heightAir tempDewpointWater temp
2017-Apr-24 09:03N 47°21' W 004°57'0 0.3
2017-Apr-24 08:43N 47°21' W 004°57'12 8.8
2017-Apr-24 07:23N 47°32' W 005°04'0 1.2
2017-Apr-24 07:00N 47°32' W 005°05'1 2.3
2017-Apr-24 06:30N 47°32' W 005°07'1 2.4
2017-Apr-24 06:00N 47°32' W 005°09'1 2.5
2017-Apr-24 05:30N 47°33' W 005°10'2 2.1
2017-Apr-24 04:32N 47°34' W 005°08'0 2.4
2017-Apr-24 04:23N 47°34' W 005°08'2 1.9
2017-Apr-24 03:35N 47°33' W 005°08'1 2.0
2017-Apr-24 03:15N 47°32' W 005°09'1 3.0
2017-Apr-24 03:00N 47°33' W 005°10'8 1.7
2017-Apr-23 22:21N 47°33' W 004°58'4 0.4
2017-Apr-23 10:29N 47°31' W 005°03'1 2.7
2017-Apr-23 09:58N 47°31' W 005°05'2 2.8
2017-Apr-23 09:12N 47°31' W 005°08'3 0.1
2017-Apr-22 14:08N 47°32' W 005°12'11 1.0
2017-Apr-22 02:57N 47°21' W 005°10'2 2.5
2017-Apr-22 02:03N 47°21' W 005°13'0 2.3
2017-Apr-22 02:00N 47°21' W 005°14'23 1.3
2017-Apr-21 08:17N 47°39' W 004°53'3 8.7
2017-Apr-21 07:58N 47°39' W 004°57'4 8.6
2017-Apr-21 07:30N 47°37' W 005°03'  
2017-Apr-17 03:06N 47°23' W 004°57'1 2.2
2017-Apr-17 02:43N 47°22' W 004°58'  
Track history (hours):
 
Tides and Currents Weather Stations Pressure Air Temp Water Temp Dewpoint Dewpoint Depression Visibility Wind Speed Wind Dir Waves Ship Positions

F/V Le Dolmen

Last reported at 2017-Apr-24 09:03 UTC. Time now 2017-Apr-24 15:19 UTC.
Position N 47°21' W 004°57'.

Length 18 m.

Type: Fishing. MMSI: 228374000.

Date/timePositionNaut miles runAvg speedWind from/ knotsBaromVisibWave heightAir tempDewpointWater temp
2017-Apr-24 09:03N 47°21' W 004°57'0 0.3
2017-Apr-24 08:43N 47°21' W 004°57'12 8.8
2017-Apr-24 07:23N 47°32' W 005°04'0 1.2
2017-Apr-24 07:00N 47°32' W 005°05'1 2.3
2017-Apr-24 06:30N 47°32' W 005°07'1 2.4
2017-Apr-24 06:00N 47°32' W 005°09'1 2.5
2017-Apr-24 05:30N 47°33' W 005°10'2 2.1
2017-Apr-24 04:32N 47°34' W 005°08'0 2.4
2017-Apr-24 04:23N 47°34' W 005°08'2 1.9
2017-Apr-24 03:35N 47°33' W 005°08'1 2.0
2017-Apr-24 03:15N 47°32' W 005°09'1 3.0
2017-Apr-24 03:00N 47°33' W 005°10'8 1.7
2017-Apr-23 22:21N 47°33' W 004°58'4 0.4
2017-Apr-23 10:29N 47°31' W 005°03'1 2.7
2017-Apr-23 09:58N 47°31' W 005°05'2 2.8
2017-Apr-23 09:12N 47°31' W 005°08'3 0.1
2017-Apr-22 14:08N 47°32' W 005°12'11 1.0
2017-Apr-22 02:57N 47°21' W 005°10'2 2.5
2017-Apr-22 02:03N 47°21' W 005°13'0 2.3
2017-Apr-22 02:00N 47°21' W 005°14'23 1.3
2017-Apr-21 08:17N 47°39' W 004°53'3 8.7
2017-Apr-21 07:58N 47°39' W 004°57'4 8.6
2017-Apr-21 07:30N 47°37' W 005°03'  
2017-Apr-17 03:06N 47°23' W 004°57'1 2.2
2017-Apr-17 02:43N 47°22' W 004°58'  

Dump ship's entire track history